Time;durP1;ratioP1;P1;durP2;ratioP2;P2;SDS_P1;SDS_P2;PMS_P1;PMS_P2;Temp;Humidity;BMP_temperature;BMP_pressure;BME280_temperature;BME280_humidity;BME280_pressure;Samples;Min_cycle;Max_cycle;Signal;HPM_P1;HPM_P2
2023/10/20 00:01:32;;;;;;;23.77;19.47;;;15.20;85.00;;;;;;5015823;28;20630;-81
2023/10/20 00:03:58;;;;;;;25.20;21.20;;;15.20;86.50;;;;;;5015621;28;20199;-80
2023/10/20 00:06:23;;;;;;;26.20;19.50;;;15.20;86.70;;;;;;5011793;28;20551;-81
2023/10/20 00:08:49;;;;;;;27.63;20.17;;;15.20;90.30;;;;;;5015323;28;20248;-80
2023/10/20 00:11:14;;;;;;;25.00;20.53;;;15.20;90.70;;;;;;5014530;28;20264;-80
2023/10/20 00:13:40;;;;;;;32.67;23.73;;;15.20;89.80;;;;;;5014936;28;20289;-80
2023/10/20 00:16:06;;;;;;;31.20;20.47;;;15.20;90.10;;;;;;5014156;28;20294;-80
2023/10/20 00:18:32;;;;;;;28.70;21.40;;;15.20;91.20;;;;;;5014624;28;20476;-81
2023/10/20 00:20:57;;;;;;;24.07;20.63;;;15.20;92.40;;;;;;5014683;28;20194;-81
2023/10/20 00:23:23;;;;;;;28.67;20.97;;;15.20;93.60;;;;;;5012635;28;20179;-81
2023/10/20 00:25:49;;;;;;;23.90;19.20;;;15.20;94.50;;;;;;5015584;28;20222;-80
2023/10/20 00:28:14;;;;;;;24.80;21.70;;;15.20;93.40;;;;;;5014297;28;20187;-81
2023/10/20 00:30:41;;;;;;;28.53;20.90;;;15.10;92.70;;;;;;5016016;28;20191;-81
2023/10/20 00:33:07;;;;;;;25.50;21.13;;;15.20;93.30;;;;;;5014575;28;20183;-80
2023/10/20 00:35:33;;;;;;;26.43;20.77;;;15.20;92.80;;;;;;5015958;28;20454;-80
2023/10/20 00:37:58;;;;;;;32.13;21.13;;;15.20;92.70;;;;;;5018243;28;20469;-80
2023/10/20 00:40:24;;;;;;;28.80;19.67;;;15.20;92.10;;;;;;5018274;28;20195;-80
2023/10/20 00:42:50;;;;;;;28.13;19.63;;;15.20;92.60;;;;;;5021431;28;20199;-80
2023/10/20 00:45:16;;;;;;;31.20;20.60;;;15.20;91.60;;;;;;5015191;28;20290;-80
2023/10/20 00:47:44;;;;;;;30.53;20.50;;;15.20;92.30;;;;;;5014341;28;20234;-80
2023/10/20 00:50:13;;;;;;;27.87;20.60;;;15.20;93.00;;;;;;5014424;28;20183;-80
2023/10/20 00:52:46;;;;;;;22.97;18.27;;;15.20;92.40;;;;;;5015174;28;20947;-80
2023/10/20 00:55:13;;;;;;;28.03;22.30;;;15.30;94.20;;;;;;5011237;28;20493;-80
2023/10/20 00:57:40;;;;;;;31.73;20.90;;;15.20;93.80;;;;;;5014839;28;20977;-80
2023/10/20 01:00:09;;;;;;;29.90;22.23;;;15.20;94.00;;;;;;5014255;28;20959;-80
2023/10/20 01:02:37;;;;;;;26.87;20.00;;;15.20;94.30;;;;;;5010678;28;20442;-81
2023/10/20 01:05:06;;;;;;;23.97;19.27;;;15.20;95.10;;;;;;5015068;28;20626;-80
2023/10/20 01:07:33;;;;;;;25.37;20.43;;;15.30;94.30;;;;;;5017528;28;20868;-81
2023/10/20 01:10:00;;;;;;;25.70;21.57;;;15.30;94.90;;;;;;5018718;28;20429;-80
2023/10/20 01:12:26;;;;;;;30.67;21.30;;;15.30;93.40;;;;;;5015081;28;20633;-81
2023/10/20 01:14:52;;;;;;;24.00;18.93;;;15.30;93.70;;;;;;5017438;28;20469;-80
2023/10/20 01:17:17;;;;;;;26.63;19.60;;;15.30;93.00;;;;;;5018874;28;20687;-80
2023/10/20 01:19:44;;;;;;;22.67;20.20;;;15.30;92.50;;;;;;5017949;28;20446;-80
2023/10/20 01:22:09;;;;;;;25.87;19.53;;;15.20;93.00;;;;;;5017274;28;20601;-80
2023/10/20 01:24:35;;;;;;;27.83;19.40;;;15.20;94.90;;;;;;5017095;28;20456;-81
2023/10/20 01:27:00;;;;;;;25.07;19.07;;;15.30;94.60;;;;;;5017069;28;20175;-81
2023/10/20 01:29:26;;;;;;;23.30;19.23;;;15.30;96.00;;;;;;5015374;28;20194;-80
2023/10/20 01:31:51;;;;;;;23.70;18.23;;;15.30;95.60;;;;;;5018323;28;20743;-81
2023/10/20 01:34:17;;;;;;;27.60;21.07;;;15.30;95.20;;;;;;5017202;28;20215;-81
2023/10/20 01:36:43;;;;;;;27.47;20.33;;;15.30;95.60;;;;;;5017241;28;20183;-80
2023/10/20 01:39:08;;;;;;;26.40;19.57;;;15.20;96.20;;;;;;5018524;28;20190;-79
2023/10/20 01:41:34;;;;;;;31.50;22.67;;;15.30;98.70;;;;;;5017657;28;20574;-81
2023/10/20 01:43:59;;;;;;;30.90;23.00;;;15.20;97.10;;;;;;5018171;28;20198;-81
2023/10/20 01:46:25;;;;;;;26.67;21.03;;;15.20;97.70;;;;;;5012425;28;20234;-80
2023/10/20 01:48:50;;;;;;;26.00;20.20;;;15.20;99.80;;;;;;5016409;28;20194;-80
2023/10/20 01:51:16;;;;;;;28.37;20.03;;;15.20;99.90;;;;;;5014029;28;20188;-80
2023/10/20 01:53:41;;;;;;;24.37;20.40;;;15.30;99.90;;;;;;5015623;28;20195;-80
2023/10/20 01:56:07;;;;;;;27.70;20.63;;;15.30;99.70;;;;;;5016569;28;20203;-80
2023/10/20 01:58:32;;;;;;;27.77;21.80;;;15.30;99.90;;;;;;5015857;28;20199;-81
2023/10/20 02:00:58;;;;;;;28.30;21.13;;;15.30;99.90;;;;;;5016864;28;20179;-80
2023/10/20 02:03:23;;;;;;;33.30;22.57;;;15.30;99.90;;;;;;5012623;28;20198;-80
2023/10/20 02:05:49;;;;;;;31.20;23.40;;;15.30;99.90;;;;;;5016139;28;20235;-80
2023/10/20 02:08:15;;;;;;;32.53;26.17;;;15.30;99.70;;;;;;5014893;28;20194;-80
2023/10/20 02:10:43;;;;;;;28.50;22.60;;;15.30;99.40;;;;;;5014180;28;20275;-80
2023/10/20 02:13:10;;;;;;;29.10;21.63;;;15.30;99.90;;;;;;5016852;28;20561;-79
2023/10/20 02:15:35;;;;;;;28.73;20.60;;;15.40;99.90;;;;;;5012762;28;20857;-80
2023/10/20 02:18:01;;;;;;;31.03;21.67;;;15.40;99.80;;;;;;5017875;28;20529;-81
2023/10/20 02:20:27;;;;;;;30.10;23.23;;;15.40;97.40;;;;;;5012554;28;20187;-79
2023/10/20 02:22:53;;;;;;;26.80;20.80;;;15.40;97.50;;;;;;5018391;28;20198;-81
2023/10/20 02:25:19;;;;;;;28.77;21.80;;;15.40;99.20;;;;;;5017787;28;20247;-80
2023/10/20 02:27:47;;;;;;;26.67;21.73;;;15.40;99.20;;;;;;5018253;28;20434;-81
2023/10/20 02:30:13;;;;;;;26.57;20.90;;;15.40;98.90;;;;;;5017459;28;20935;-81
2023/10/20 02:32:39;;;;;;;31.03;20.00;;;15.40;98.90;;;;;;5019634;28;20465;-81
2023/10/20 02:35:06;;;;;;;26.80;19.60;;;15.50;99.00;;;;;;5017472;28;20847;-81
2023/10/20 02:37:31;;;;;;;25.67;17.70;;;15.50;98.20;;;;;;5013774;28;20199;-80
2023/10/20 02:39:57;;;;;;;21.70;17.90;;;15.50;98.00;;;;;;5016945;28;20997;-80
2023/10/20 02:42:23;;;;;;;21.30;18.50;;;15.50;96.40;;;;;;5017698;28;20214;-81
2023/10/20 02:44:48;;;;;;;22.90;18.40;;;15.50;96.40;;;;;;5016577;28;20266;-81
2023/10/20 02:47:14;;;;;;;23.50;17.53;;;15.50;96.30;;;;;;5016786;28;20561;-80
2023/10/20 02:49:40;;;;;;;24.80;18.00;;;15.60;95.60;;;;;;5018054;28;20214;-81
2023/10/20 02:52:05;;;;;;;23.23;19.70;;;15.60;96.20;;;;;;5016940;28;20179;-81
2023/10/20 02:54:31;;;;;;;21.83;19.17;;;15.60;95.30;;;;;;5012998;28;20495;-80
2023/10/20 02:56:56;;;;;;;20.63;16.73;;;15.60;95.20;;;;;;5017453;28;20345;-81
2023/10/20 02:59:23;;;;;;;28.33;19.23;;;15.60;95.00;;;;;;5011355;28;20681;-81
2023/10/20 03:01:48;;;;;;;21.77;16.77;;;15.60;94.30;;;;;;5016462;28;20188;-81
2023/10/20 03:04:14;;;;;;;21.70;17.70;;;15.60;93.70;;;;;;5016075;28;20472;-81
2023/10/20 03:06:41;;;;;;;22.37;16.80;;;15.60;92.20;;;;;;5015966;28;20242;-81
2023/10/20 03:09:07;;;;;;;16.70;14.23;;;15.70;91.80;;;;;;5016386;28;20239;-80
2023/10/20 03:11:32;;;;;;;19.00;15.23;;;15.70;90.00;;;;;;5014004;28;20894;-81
2023/10/20 03:13:58;;;;;;;17.50;13.57;;;15.70;83.60;;;;;;5016233;28;20183;-81
2023/10/20 03:16:24;;;;;;;15.57;12.80;;;15.80;86.40;;;;;;5015896;28;20245;-80
2023/10/20 03:18:50;;;;;;;14.53;10.83;;;15.80;81.60;;;;;;5017254;28;20726;-81
2023/10/20 03:21:18;;;;;;;15.70;13.10;;;15.80;81.70;;;;;;5017179;28;20441;-81
2023/10/20 03:23:43;;;;;;;17.40;13.60;;;15.80;78.70;;;;;;5016522;28;20191;-81
2023/10/20 03:26:13;;;;;;;18.00;12.80;;;15.80;81.30;;;;;;5016329;28;20481;-81
2023/10/20 03:28:39;;;;;;;17.70;13.23;;;15.80;78.90;;;;;;5014910;28;20175;-80
2023/10/20 03:31:05;;;;;;;14.80;12.43;;;15.80;79.40;;;;;;5017428;28;20433;-81
2023/10/20 03:33:30;;;;;;;13.63;12.13;;;15.80;79.40;;;;;;5016606;28;20800;-80
2023/10/20 03:36:03;;;;;;;17.43;13.50;;;15.80;81.20;;;;;;5016425;28;20583;-81
2023/10/20 03:38:29;;;;;;;15.47;12.47;;;15.80;80.00;;;;;;5016434;28;20183;-80
2023/10/20 03:41:05;;;;;;;17.07;12.73;;;15.80;85.90;;;;;;5017384;28;20441;-81
2023/10/20 03:43:31;;;;;;;18.57;14.10;;;15.80;86.00;;;;;;5017582;28;20522;-81
2023/10/20 03:45:56;;;;;;;19.53;14.93;;;15.80;83.70;;;;;;5015617;28;20479;-81
2023/10/20 03:48:29;;;;;;;23.90;15.60;;;15.80;79.90;;;;;;5021012;28;20194;-80
2023/10/20 03:50:55;;;;;;;17.50;14.40;;;15.80;82.90;;;;;;5020796;28;20175;-81
2023/10/20 03:53:26;;;;;;;15.23;12.77;;;15.80;84.40;;;;;;5013146;28;20496;-79
2023/10/20 03:56:03;;;;;;;17.10;13.00;;;15.80;86.70;;;;;;5011436;28;21052;-80
2023/10/20 03:58:30;;;;;;;17.40;13.73;;;15.80;81.50;;;;;;5009967;28;20434;-81
2023/10/20 04:01:06;;;;;;;24.87;11.43;;;15.80;78.00;;;;;;5011618;28;20488;-80
2023/10/20 04:03:32;;;;;;;14.33;12.23;;;15.90;79.70;;;;;;5011424;28;20528;-81
2023/10/20 04:05:58;;;;;;;13.33;12.00;;;15.90;74.50;;;;;;5014470;28;20533;-80
2023/10/20 04:08:24;;;;;;;17.20;11.87;;;15.90;73.40;;;;;;5014713;28;20255;-81
2023/10/20 04:10:57;;;;;;;15.00;12.53;;;15.80;76.70;;;;;;5016827;28;20512;-81
2023/10/20 04:13:23;;;;;;;16.23;11.57;;;15.90;71.70;;;;;;5015602;28;20434;-81
2023/10/20 04:15:49;;;;;;;15.00;11.03;;;15.90;75.00;;;;;;5017089;28;20452;-81
2023/10/20 04:18:15;;;;;;;14.43;11.53;;;15.90;75.50;;;;;;5011483;28;20187;-80
2023/10/20 04:20:42;;;;;;;12.23;10.93;;;15.90;72.90;;;;;;5013041;28;20454;-81
2023/10/20 04:23:08;;;;;;;14.93;11.50;;;15.90;70.40;;;;;;5015580;28;20438;-80
2023/10/20 04:25:39;;;;;;;13.37;11.80;;;15.90;71.70;;;;;;5011121;28;20565;-81
2023/10/20 04:47:07;;;;;;;12.70;11.17;;;15.80;72.50;;;;;;5014479;28;20987;-81
2023/10/20 04:52:54;;;;;;;15.57;11.43;;;15.80;74.50;;;;;;5012004;28;20442;-81
2023/10/20 05:08:17;;;;;;;14.20;12.13;;;15.60;84.70;;;;;;5007321;28;20470;-80
2023/10/20 05:10:44;;;;;;;21.20;13.30;;;15.60;87.40;;;;;;5006867;28;20541;-80
2023/10/20 05:13:12;;;;;;;17.60;14.53;;;15.60;89.50;;;;;;5013058;28;20418;-79
2023/10/20 05:15:41;;;;;;;19.67;13.90;;;15.60;89.20;;;;;;5012057;28;20438;-81
2023/10/20 05:18:11;;;;;;;16.10;14.40;;;15.60;92.10;;;;;;5013532;28;20422;-81
2023/10/20 05:20:46;;;;;;;22.00;13.50;;;15.50;91.40;;;;;;5014775;28;20454;-81
2023/10/20 05:23:14;;;;;;;18.60;13.67;;;15.50;92.90;;;;;;5015113;28;20421;-80
2023/10/20 05:25:47;;;;;;;18.43;15.17;;;15.50;93.00;;;;;;5012521;28;20466;-80
2023/10/20 05:28:14;;;;;;;21.60;16.90;;;15.50;93.80;;;;;;5015520;28;20457;-80
2023/10/20 05:30:45;;;;;;;24.63;19.03;;;15.50;95.80;;;;;;5015954;28;20469;-81
2023/10/20 05:33:11;;;;;;;20.70;16.20;;;15.50;96.30;;;;;;5018553;28;20410;-80
2023/10/20 05:35:37;;;;;;;24.53;18.90;;;15.50;97.40;;;;;;5016319;28;20640;-81
2023/10/20 05:38:02;;;;;;;32.10;19.57;;;15.50;97.50;;;;;;5014791;28;20421;-81
2023/10/20 05:40:28;;;;;;;24.63;18.30;;;15.50;99.10;;;;;;5016391;28;20191;-81
2023/10/20 05:42:53;;;;;;;25.73;20.40;;;15.50;99.90;;;;;;5016073;28;20900;-81
2023/10/20 05:45:21;;;;;;;23.50;18.00;;;15.50;99.90;;;;;;5017245;28;20214;-81
2023/10/20 05:47:46;;;;;;;26.00;19.30;;;15.50;99.90;;;;;;5016100;28;20249;-81
2023/10/20 05:50:13;;;;;;;24.37;17.87;;;15.50;99.90;;;;;;5016186;28;20441;-81
2023/10/20 05:52:39;;;;;;;27.40;19.60;;;15.50;99.90;;;;;;5018002;28;20434;-82
2023/10/20 05:55:05;;;;;;;28.57;17.73;;;15.50;99.90;;;;;;5017581;28;20507;-82
2023/10/20 05:57:31;;;;;;;22.87;18.07;;;15.50;99.90;;;;;;5018851;28;20434;-81
2023/10/20 05:59:59;;;;;;;23.40;17.50;;;15.50;99.90;;;;;;5016544;28;20461;-81
2023/10/20 06:02:25;;;;;;;28.83;18.83;;;15.50;99.90;;;;;;5015709;28;20236;-81
2023/10/20 06:04:50;;;;;;;22.33;18.20;;;15.50;99.90;;;;;;5015306;28;20496;-80
2023/10/20 06:07:16;;;;;;;24.37;16.57;;;15.50;99.90;;;;;;5017587;28;20445;-80
2023/10/20 06:09:42;;;;;;;24.80;17.87;;;15.50;99.90;;;;;;5015973;28;20752;-81
2023/10/20 06:12:10;;;;;;;22.67;17.30;;;15.50;99.90;;;;;;5016982;28;20179;-81
2023/10/20 06:14:36;;;;;;;21.57;14.57;;;15.50;99.90;;;;;;5017639;28;20739;-81
2023/10/20 06:17:01;;;;;;;22.13;17.93;;;15.50;99.90;;;;;;5014256;28;20462;-80
2023/10/20 06:19:28;;;;;;;21.27;15.47;;;15.50;99.90;;;;;;5015556;28;20464;-80
2023/10/20 06:21:54;;;;;;;24.20;17.93;;;15.50;99.90;;;;;;5014282;28;20186;-80
2023/10/20 06:24:20;;;;;;;19.67;17.50;;;15.50;99.90;;;;;;5016345;28;20454;-80
2023/10/20 06:26:47;;;;;;;19.03;14.20;;;15.40;99.90;;;;;;5015297;28;20218;-81
2023/10/20 06:31:46;;;;;;;19.13;14.70;;;15.50;99.90;;;;;;5016385;28;20450;-80
2023/10/20 06:34:23;;;;;;;20.73;15.07;;;15.40;99.90;;;;;;5013243;28;20955;-80
2023/10/20 06:36:50;;;;;;;26.03;15.47;;;15.40;99.90;;;;;;5013558;28;20438;-80
2023/10/20 06:39:18;;;;;;;27.73;17.90;;;15.40;99.90;;;;;;5014803;28;21006;-79
2023/10/20 06:41:44;;;;;;;19.20;15.13;;;15.40;99.90;;;;;;5016999;28;20505;-80
2023/10/20 06:44:10;;;;;;;21.17;16.10;;;15.40;99.90;;;;;;5011496;28;20477;-80
2023/10/20 06:46:35;;;;;;;29.27;17.83;;;15.40;99.90;;;;;;5012763;28;20465;-80
2023/10/20 06:49:02;;;;;;;28.73;17.93;;;15.40;99.90;;;;;;5013150;28;20191;-80
2023/10/20 06:51:29;;;;;;;25.43;18.37;;;15.40;99.90;;;;;;5017032;28;20637;-80
2023/10/20 06:53:55;;;;;;;23.93;17.23;;;15.30;99.90;;;;;;5017064;28;20438;-80
2023/10/20 06:56:20;;;;;;;26.47;18.73;;;15.30;99.90;;;;;;5017958;28;20462;-80
2023/10/20 06:58:47;;;;;;;21.23;15.60;;;15.30;99.90;;;;;;5016953;28;20210;-80
2023/10/20 07:01:13;;;;;;;21.43;15.37;;;15.30;99.90;;;;;;5016210;28;20327;-81
2023/10/20 07:03:38;;;;;;;17.57;12.30;;;15.30;99.90;;;;;;5014874;28;20536;-81
2023/10/20 07:06:07;;;;;;;22.03;13.67;;;15.30;99.90;;;;;;5015297;28;20586;-80
2023/10/20 07:08:33;;;;;;;18.87;11.17;;;15.30;99.90;;;;;;5013758;28;20188;-81
2023/10/20 07:11:04;;;;;;;18.00;11.67;;;15.30;99.90;;;;;;5008895;28;20991;-80
2023/10/20 07:13:33;;;;;;;28.63;12.87;;;15.30;99.90;;;;;;5016493;28;20442;-80
2023/10/20 07:16:00;;;;;;;24.20;12.63;;;15.30;99.90;;;;;;5015679;28;20485;-81
2023/10/20 07:18:26;;;;;;;21.30;13.43;;;15.30;99.90;;;;;;5017016;28;20470;-80
2023/10/20 07:20:52;;;;;;;16.87;11.43;;;15.20;99.90;;;;;;5014243;28;20446;-79
2023/10/20 07:23:18;;;;;;;25.70;12.03;;;15.20;99.90;;;;;;5015075;28;20449;-80
2023/10/20 07:25:43;;;;;;;18.13;13.00;;;15.20;99.90;;;;;;5013483;28;20211;-80
2023/10/20 07:28:09;;;;;;;21.07;11.40;;;15.20;99.90;;;;;;5014413;28;20470;-80
2023/10/20 07:30:35;;;;;;;20.03;12.03;;;15.20;99.90;;;;;;5014201;28;20286;-80
2023/10/20 07:33:03;;;;;;;17.47;12.63;;;15.20;99.90;;;;;;5013670;28;20522;-79
2023/10/20 07:35:28;;;;;;;17.27;12.23;;;15.30;99.90;;;;;;5014446;28;20927;-80
2023/10/20 07:37:54;;;;;;;16.83;10.27;;;15.30;99.90;;;;;;5014452;28;20461;-80
2023/10/20 07:40:19;;;;;;;17.70;11.10;;;15.30;99.90;;;;;;5014668;28;20535;-80
2023/10/20 07:42:46;;;;;;;17.77;13.00;;;15.30;99.90;;;;;;5012096;28;20195;-80
2023/10/20 07:45:14;;;;;;;19.70;12.57;;;15.30;99.90;;;;;;5013633;28;20233;-80
2023/10/20 07:47:40;;;;;;;25.80;16.10;;;15.30;99.90;;;;;;5012275;28;20495;-79
2023/10/20 07:50:06;;;;;;;27.70;16.40;;;15.30;99.90;;;;;;5013933;28;20430;-80
2023/10/20 07:52:31;;;;;;;23.10;14.90;;;15.30;99.90;;;;;;5013490;28;20175;-79
2023/10/20 07:54:57;;;;;;;26.47;16.63;;;15.30;99.90;;;;;;5010847;28;20453;-79
2023/10/20 07:57:24;;;;;;;26.27;14.70;;;15.30;99.90;;;;;;5011567;28;20184;-80
2023/10/20 07:59:49;;;;;;;19.47;14.23;;;15.30;99.90;;;;;;5012409;28;20194;-80
2023/10/20 08:02:15;;;;;;;15.37;12.00;;;15.30;99.90;;;;;;5011050;28;20434;-80
2023/10/20 08:04:41;;;;;;;22.70;14.00;;;15.30;99.90;;;;;;5010272;28;20265;-79
2023/10/20 08:07:09;;;;;;;19.93;14.60;;;15.40;99.90;;;;;;5011992;28;20242;-80
2023/10/20 08:09:36;;;;;;;19.37;14.30;;;15.30;99.90;;;;;;5012857;28;20473;-79
2023/10/20 08:12:02;;;;;;;21.60;14.00;;;15.40;99.90;;;;;;5012461;28;20434;-79
2023/10/20 08:14:28;;;;;;;18.50;13.73;;;15.40;99.90;;;;;;5012909;28;20821;-79
2023/10/20 08:16:54;;;;;;;23.87;15.13;;;15.50;99.90;;;;;;5012192;28;20940;-79
2023/10/20 08:19:20;;;;;;;23.50;14.47;;;15.50;99.90;;;;;;5009977;28;21013;-79
2023/10/20 08:21:45;;;;;;;25.70;15.90;;;15.50;99.90;;;;;;5012015;28;20438;-79
2023/10/20 08:24:11;;;;;;;24.80;14.60;;;15.50;99.90;;;;;;5010638;28;20222;-79
2023/10/20 08:26:37;;;;;;;20.97;14.80;;;15.50;99.90;;;;;;5011973;28;20219;-79
2023/10/20 08:29:12;;;;;;;24.47;16.20;;;15.50;99.90;;;;;;5012765;28;20803;-79
2023/10/20 08:31:39;;;;;;;25.93;16.20;;;15.50;99.90;;;;;;5010397;28;20892;-79
2023/10/20 08:34:05;;;;;;;23.03;13.60;;;15.60;99.90;;;;;;4995481;28;21176;-79
2023/10/20 08:36:30;;;;;;;28.90;20.60;;;15.60;99.90;;;;;;5008072;28;20450;-79
2023/10/20 08:39:01;;;;;;;23.13;14.90;;;15.60;99.90;;;;;;5010533;28;20278;-80
2023/10/20 08:41:26;;;;;;;22.87;16.97;;;15.60;99.90;;;;;;5008298;28;20203;-79
2023/10/20 08:43:52;;;;;;;23.10;17.03;;;15.60;97.50;;;;;;5003005;28;20863;-79
2023/10/20 08:46:18;;;;;;;31.70;17.20;;;15.60;99.30;;;;;;5010033;28;20215;-79
2023/10/20 08:48:45;;;;;;;28.20;20.00;;;15.60;98.90;;;;;;5007063;28;20183;-78
2023/10/20 08:51:13;;;;;;;27.97;19.80;;;15.60;96.80;;;;;;5005184;28;20461;-79
2023/10/20 08:53:41;;;;;;;27.63;18.93;;;15.60;97.60;;;;;;5004100;28;20473;-79
2023/10/20 08:56:08;;;;;;;31.33;20.50;;;15.60;99.60;;;;;;5011986;28;20532;-81
2023/10/20 08:58:35;;;;;;;40.57;20.90;;;15.60;98.70;;;;;;5018966;28;20441;-79
2023/10/20 09:01:02;;;;;;;36.00;23.53;;;15.70;99.10;;;;;;5007531;28;20558;-79
2023/10/20 09:03:37;;;;;;;36.40;21.13;;;15.60;95.90;;;;;;5013351;28;20430;-79
2023/10/20 09:06:07;;;;;;;35.70;23.60;;;15.60;95.70;;;;;;5014599;28;20477;-79
2023/10/20 09:08:33;;;;;;;38.77;24.03;;;15.60;97.90;;;;;;5018776;28;20410;-79
2023/10/20 09:10:59;;;;;;;38.53;23.00;;;15.50;99.40;;;;;;5019526;28;20977;-79
2023/10/20 09:13:35;;;;;;;32.80;21.60;;;15.50;99.40;;;;;;5019070;28;20414;-79
2023/10/20 09:16:12;;;;;;;42.93;24.80;;;15.50;99.90;;;;;;5014120;28;20765;-79
2023/10/20 09:18:47;;;;;;;40.63;26.07;;;15.50;99.90;;;;;;5016478;28;20449;-79
2023/10/20 09:21:18;;;;;;;42.43;24.67;;;15.50;99.90;;;;;;5013318;28;20536;-77
2023/10/20 09:24:03;;;;;;;36.70;23.50;;;15.50;99.30;;;;;;5010936;28;20993;-79
2023/10/20 09:26:37;;;;;;;46.53;23.80;;;15.60;99.90;;;;;;5016155;28;20497;-79
2023/10/20 09:29:06;;;;;;;34.50;21.10;;;15.60;97.10;;;;;;5006195;28;20469;-79
2023/10/20 09:31:33;;;;;;;37.50;24.57;;;15.70;94.50;;;;;;5013493;28;20445;-80
2023/10/20 09:33:59;;;;;;;39.27;23.87;;;15.70;93.10;;;;;;5016121;28;20887;-80
2023/10/20 09:36:28;;;;;;;42.17;23.27;;;15.70;90.40;;;;;;5017918;28;20468;-80
2023/10/20 09:38:56;;;;;;;41.67;24.27;;;15.70;93.00;;;;;;5017411;28;20442;-80
2023/10/20 09:41:27;;;;;;;38.90;23.23;;;15.70;85.20;;;;;;5017119;28;20944;-80
2023/10/20 09:44:06;;;;;;;34.20;24.37;;;15.70;88.50;;;;;;5013965;28;20443;-80
2023/10/20 09:46:59;;;;;;;39.03;24.70;;;15.70;83.80;;;;;;5010896;28;20501;-80
2023/10/20 09:49:26;;;;;;;38.30;24.00;;;15.70;88.60;;;;;;5017343;28;20434;-80
2023/10/20 09:51:54;;;;;;;38.37;23.13;;;15.70;90.30;;;;;;5014831;28;20465;-79
2023/10/20 09:54:24;;;;;;;34.47;22.33;;;15.70;86.40;;;;;;5014343;28;20438;-78
2023/10/20 09:56:50;;;;;;;32.90;21.63;;;15.80;90.70;;;;;;5012694;28;20504;-77
2023/10/20 09:59:21;;;;;;;32.60;21.40;;;15.80;82.30;;;;;;5015803;28;20433;-77
2023/10/20 10:01:47;;;;;;;34.43;22.30;;;15.80;78.00;;;;;;5015347;28;20430;-77
2023/10/20 10:04:13;;;;;;;36.20;22.27;;;15.80;76.40;;;;;;5010293;28;20476;-78
2023/10/20 10:06:42;;;;;;;33.47;19.93;;;15.90;82.70;;;;;;5013924;28;20266;-78
2023/10/20 10:09:08;;;;;;;35.07;21.17;;;15.80;76.10;;;;;;5013760;28;20237;-78
2023/10/20 10:11:44;;;;;;;31.30;19.50;;;15.80;85.40;;;;;;5016324;28;20422;-80
2023/10/20 10:14:19;;;;;;;36.73;23.47;;;15.80;90.00;;;;;;5014362;28;20422;-78
2023/10/20 10:16:55;;;;;;;44.63;25.40;;;15.80;84.90;;;;;;5015069;28;20908;-78
2023/10/20 10:19:26;;;;;;;50.60;24.30;;;16.00;91.40;;;;;;5013701;28;20421;-78
2023/10/20 10:21:57;;;;;;;39.07;22.40;;;16.00;75.30;;;;;;5003923;28;20439;-78
2023/10/20 10:24:24;;;;;;;42.77;24.53;;;15.90;75.60;;;;;;5007062;28;20516;-78
2023/10/20 10:26:56;;;;;;;45.13;26.17;;;15.90;74.80;;;;;;5007144;28;21023;-78
2023/10/20 10:29:50;;;;;;;45.83;29.47;;;16.10;78.80;;;;;;5006957;28;20442;-77
2023/10/20 10:32:17;;;;;;;45.40;24.80;;;16.10;67.50;;;;;;5011251;28;20442;-77
2023/10/20 10:34:54;;;;;;;48.90;28.50;;;16.10;70.10;;;;;;5010515;28;21021;-77
2023/10/20 10:37:46;;;;;;;42.70;27.60;;;16.10;67.30;;;;;;5011355;28;20438;-77
2023/10/20 10:40:14;;;;;;;49.10;28.90;;;16.10;65.40;;;;;;5006297;28;20461;-80
2023/10/20 10:42:42;;;;;;;44.57;27.03;;;16.20;60.40;;;;;;5017914;28;20430;-80
2023/10/20 10:45:27;;;;;;;46.37;26.33;;;16.20;55.20;;;;;;5012229;28;20468;-79
2023/10/20 10:48:05;;;;;;;43.03;23.00;;;16.30;54.90;;;;;;5015586;28;20560;-79
2023/10/20 10:50:32;;;;;;;41.63;25.97;;;16.30;51.30;;;;;;5002199;28;20509;-79
2023/10/20 10:52:58;;;;;;;45.67;26.27;;;16.30;49.30;;;;;;5015723;28;20800;-79
2023/10/20 10:55:24;;;;;;;43.80;28.50;;;16.30;41.40;;;;;;5005861;28;20482;-79
2023/10/20 10:57:51;;;;;;;44.37;26.10;;;16.20;45.90;;;;;;5013482;28;20438;-79
2023/10/20 11:00:17;;;;;;;43.30;24.53;;;16.10;50.60;;;;;;5011499;28;20443;-79
2023/10/20 11:02:46;;;;;;;41.57;25.73;;;16.10;54.30;;;;;;5012956;28;20438;-80
2023/10/20 11:05:12;;;;;;;50.50;26.50;;;16.00;58.00;;;;;;5009598;28;20501;-79
2023/10/20 11:07:39;;;;;;;47.17;27.00;;;16.00;68.70;;;;;;5013039;28;20441;-79
2023/10/20 11:10:08;;;;;;;43.67;26.40;;;15.90;71.10;;;;;;5012896;28;20442;-79
2023/10/20 11:12:34;;;;;;;44.17;24.90;;;15.90;71.20;;;;;;5009102;28;20434;-79
2023/10/20 11:15:00;;;;;;;40.77;24.13;;;16.00;75.70;;;;;;5009928;28;20572;-79
2023/10/20 11:17:26;;;;;;;44.30;24.33;;;15.90;68.30;;;;;;5004417;28;20492;-79
2023/10/20 11:19:53;;;;;;;36.53;22.33;;;15.90;65.90;;;;;;5011507;28;20437;-79
2023/10/20 11:22:18;;;;;;;34.83;23.33;;;15.80;69.70;;;;;;5008380;28;20442;-79
2023/10/20 11:24:52;;;;;;;33.23;22.70;;;15.80;66.60;;;;;;5009030;28;20211;-77
2023/10/20 11:27:18;;;;;;;35.67;22.67;;;15.90;73.00;;;;;;5010117;28;20691;-77
2023/10/20 11:29:45;;;;;;;40.27;21.83;;;16.00;67.00;;;;;;5008022;28;20442;-77
2023/10/20 11:32:13;;;;;;;41.90;24.63;;;16.10;57.60;;;;;;5008049;28;20180;-76
2023/10/20 11:34:39;;;;;;;42.53;24.77;;;16.20;54.00;;;;;;5008495;28;20863;-77
2023/10/20 11:37:06;;;;;;;39.87;27.20;;;16.20;46.30;;;;;;5012788;28;20988;-80
2023/10/20 11:39:36;;;;;;;51.60;32.20;;;16.10;41.90;;;;;;5013721;28;20464;-80
2023/10/20 11:42:02;;;;;;;52.97;30.83;;;16.10;44.10;;;;;;5007420;28;20442;-79
2023/10/20 11:44:28;;;;;;;41.73;26.07;;;16.20;54.10;;;;;;5012129;28;20454;-79
2023/10/20 11:46:54;;;;;;;34.07;24.53;;;16.10;47.80;;;;;;5010745;28;20540;-79
2023/10/20 11:49:25;;;;;;;38.80;26.07;;;16.20;43.10;;;;;;5016093;28;20222;-80
2023/10/20 11:51:51;;;;;;;36.60;22.57;;;16.10;41.00;;;;;;5017628;28;20437;-79
2023/10/20 11:54:17;;;;;;;38.10;21.60;;;16.20;45.30;;;;;;5009653;28;20439;-79
2023/10/20 11:56:43;;;;;;;33.33;22.27;;;16.10;45.80;;;;;;5013211;28;20206;-78
2023/10/20 11:59:09;;;;;;;31.20;21.33;;;16.00;39.00;;;;;;5004988;28;20473;-81
2023/10/20 12:01:36;;;;;;;30.17;20.63;;;15.90;44.00;;;;;;5008860;28;20446;-79
2023/10/20 12:04:05;;;;;;;36.10;20.60;;;15.90;52.40;;;;;;5005083;28;20430;-78
2023/10/20 12:06:31;;;;;;;32.80;20.50;;;15.90;50.30;;;;;;5011328;28;20493;-79
2023/10/20 12:08:57;;;;;;;26.73;21.30;;;15.90;52.40;;;;;;5013785;28;20435;-78
2023/10/20 12:11:23;;;;;;;30.27;20.70;;;15.90;50.40;;;;;;5010964;28;20460;-78
2023/10/20 12:13:49;;;;;;;28.73;19.17;;;15.90;54.10;;;;;;5006300;28;20462;-78
2023/10/20 12:16:15;;;;;;;30.07;19.97;;;16.00;57.20;;;;;;5006534;28;20215;-78
2023/10/20 12:18:42;;;;;;;30.93;21.73;;;15.90;51.70;;;;;;5010871;28;20195;-78
2023/10/20 12:21:07;;;;;;;40.43;23.40;;;15.90;54.60;;;;;;5010647;28;20450;-78
2023/10/20 12:23:34;;;;;;;32.37;22.37;;;15.90;49.00;;;;;;5009316;28;20473;-78
2023/10/20 12:25:59;;;;;;;36.90;25.80;;;15.90;58.10;;;;;;5013670;28;20226;-78
2023/10/20 12:28:26;;;;;;;35.30;23.67;;;15.90;69.70;;;;;;5012350;28;20446;-78
2023/10/20 12:30:51;;;;;;;38.77;24.33;;;15.90;62.70;;;;;;5011651;28;20592;-78
2023/10/20 12:33:17;;;;;;;37.27;23.47;;;16.00;65.90;;;;;;5004941;28;20569;-78
2023/10/20 12:35:43;;;;;;;35.87;24.70;;;16.00;59.70;;;;;;5011690;28;20211;-78
2023/10/20 12:38:09;;;;;;;37.40;22.83;;;15.90;57.00;;;;;;5018443;28;20234;-79
2023/10/20 12:40:39;;;;;;;36.47;22.90;;;16.00;65.30;;;;;;5008692;28;21013;-79
2023/10/20 12:43:09;;;;;;;35.50;25.37;;;16.10;60.00;;;;;;5010706;28;20521;-79
2023/10/20 12:45:36;;;;;;;38.07;24.57;;;16.00;55.40;;;;;;5010174;28;20477;-78
2023/10/20 12:48:02;;;;;;;39.60;25.33;;;15.90;55.40;;;;;;5011095;28;20442;-79
2023/10/20 12:50:29;;;;;;;34.07;25.47;;;15.90;57.40;;;;;;5011124;28;20450;-79
2023/10/20 12:52:55;;;;;;;38.80;24.60;;;15.90;56.60;;;;;;5011971;28;20194;-78
2023/10/20 12:55:20;;;;;;;40.10;27.83;;;15.90;68.90;;;;;;5010385;28;20455;-79
2023/10/20 12:57:46;;;;;;;37.67;24.73;;;15.80;70.60;;;;;;5013538;28;20183;-79
2023/10/20 13:00:12;;;;;;;39.50;25.53;;;15.80;90.10;;;;;;5013709;28;20196;-78
2023/10/20 13:02:37;;;;;;;47.03;28.80;;;15.70;93.90;;;;;;5013859;28;20187;-78
2023/10/20 13:05:04;;;;;;;44.00;27.10;;;15.70;99.90;;;;;;5007537;28;20480;-78
2023/10/20 13:07:30;;;;;;;36.47;27.80;;;15.70;99.90;;;;;;5011991;28;20356;-79